sensor_id;sensor_type;location;lat;lon;timestamp;temperature;humidity
29939;DHT22;16799;50.844;5.304;2022-10-15T00:00:34;15.20;99.90
29939;DHT22;16799;50.844;5.304;2022-10-15T00:03:00;15.10;99.90
29939;DHT22;16799;50.844;5.304;2022-10-15T00:05:25;15.30;99.90
29939;DHT22;16799;50.844;5.304;2022-10-15T00:07:51;15.50;99.90
29939;DHT22;16799;50.844;5.304;2022-10-15T00:10:18;15.40;99.90
29939;DHT22;16799;50.844;5.304;2022-10-15T00:12:44;15.00;99.90
29939;DHT22;16799;50.844;5.304;2022-10-15T00:15:09;14.80;99.90
29939;DHT22;16799;50.844;5.304;2022-10-15T00:17:35;14.70;99.90
29939;DHT22;16799;50.844;5.304;2022-10-15T00:20:03;14.50;99.90
29939;DHT22;16799;50.844;5.304;2022-10-15T00:22:29;14.50;99.90
29939;DHT22;16799;50.844;5.304;2022-10-15T00:24:54;14.50;99.90
29939;DHT22;16799;50.844;5.304;2022-10-15T00:27:20;14.60;99.90
29939;DHT22;16799;50.844;5.304;2022-10-15T00:29:46;14.60;99.90
29939;DHT22;16799;50.844;5.304;2022-10-15T00:32:11;14.50;99.90
29939;DHT22;16799;50.844;5.304;2022-10-15T00:34:37;14.40;99.90
29939;DHT22;16799;50.844;5.304;2022-10-15T00:37:03;14.50;99.90
29939;DHT22;16799;50.844;5.304;2022-10-15T00:39:28;14.40;99.90
29939;DHT22;16799;50.844;5.304;2022-10-15T00:41:54;14.50;99.90
29939;DHT22;16799;50.844;5.304;2022-10-15T00:46:47;14.40;99.90
29939;DHT22;16799;50.844;5.304;2022-10-15T00:49:17;14.30;99.90
29939;DHT22;16799;50.844;5.304;2022-10-15T00:52:08;14.20;99.90
29939;DHT22;16799;50.844;5.304;2022-10-15T00:54:36;14.10;99.90
29939;DHT22;16799;50.844;5.304;2022-10-15T00:57:03;14.10;99.90
29939;DHT22;16799;50.844;5.304;2022-10-15T00:59:31;14.10;99.90
29939;DHT22;16799;50.844;5.304;2022-10-15T01:01:59;14.20;99.90
29939;DHT22;16799;50.844;5.304;2022-10-15T01:04:26;14.40;99.90
29939;DHT22;16799;50.844;5.304;2022-10-15T01:06:52;14.60;99.90
29939;DHT22;16799;50.844;5.304;2022-10-15T01:09:18;14.60;99.90
29939;DHT22;16799;50.844;5.304;2022-10-15T01:11:47;14.50;99.90
29939;DHT22;16799;50.844;5.304;2022-10-15T01:22:39;14.40;99.90
29939;DHT22;16799;50.844;5.304;2022-10-15T01:27:42;14.40;99.90
29939;DHT22;16799;50.844;5.304;2022-10-15T01:30:23;14.60;99.90
29939;DHT22;16799;50.844;5.304;2022-10-15T01:35:22;14.50;99.90
29939;DHT22;16799;50.844;5.304;2022-10-15T01:38:04;14.50;99.90
29939;DHT22;16799;50.844;5.304;2022-10-15T01:40:49;14.40;99.90
29939;DHT22;16799;50.844;5.304;2022-10-15T01:46:12;14.50;99.90
29939;DHT22;16799;50.844;5.304;2022-10-15T01:48:39;14.40;99.90
29939;DHT22;16799;50.844;5.304;2022-10-15T01:51:06;14.30;99.90
29939;DHT22;16799;50.844;5.304;2022-10-15T01:53:35;14.20;99.90
29939;DHT22;16799;50.844;5.304;2022-10-15T01:56:08;14.20;99.90
29939;DHT22;16799;50.844;5.304;2022-10-15T01:58:37;14.20;99.90
29939;DHT22;16799;50.844;5.304;2022-10-15T02:01:05;14.20;99.90
29939;DHT22;16799;50.844;5.304;2022-10-15T02:03:31;14.40;99.90
29939;DHT22;16799;50.844;5.304;2022-10-15T02:06:04;14.40;99.90
29939;DHT22;16799;50.844;5.304;2022-10-15T02:08:47;14.40;99.90
29939;DHT22;16799;50.844;5.304;2022-10-15T02:11:17;14.50;99.90
29939;DHT22;16799;50.844;5.304;2022-10-15T02:16:43;14.30;99.90
29939;DHT22;16799;50.844;5.304;2022-10-15T02:19:29;14.60;99.90
29939;DHT22;16799;50.844;5.304;2022-10-15T02:22:03;14.60;99.90
29939;DHT22;16799;50.844;5.304;2022-10-15T02:24:58;14.30;99.90
29939;DHT22;16799;50.844;5.304;2022-10-15T02:27:22;14.20;99.90
29939;DHT22;16799;50.844;5.304;2022-10-15T02:29:49;14.20;99.90
29939;DHT22;16799;50.844;5.304;2022-10-15T02:32:19;14.30;99.90
29939;DHT22;16799;50.844;5.304;2022-10-15T02:34:46;14.50;99.90
29939;DHT22;16799;50.844;5.304;2022-10-15T02:37:13;14.50;99.90
29939;DHT22;16799;50.844;5.304;2022-10-15T02:39:39;14.50;99.90
29939;DHT22;16799;50.844;5.304;2022-10-15T02:42:05;14.60;99.90
29939;DHT22;16799;50.844;5.304;2022-10-15T02:44:31;14.50;99.90
29939;DHT22;16799;50.844;5.304;2022-10-15T02:46:58;14.60;99.90
29939;DHT22;16799;50.844;5.304;2022-10-15T02:49:24;14.40;99.90
29939;DHT22;16799;50.844;5.304;2022-10-15T02:51:49;14.30;99.90
29939;DHT22;16799;50.844;5.304;2022-10-15T02:54:15;14.20;99.90
29939;DHT22;16799;50.844;5.304;2022-10-15T02:56:41;14.50;99.90
29939;DHT22;16799;50.844;5.304;2022-10-15T02:59:07;14.70;99.90
29939;DHT22;16799;50.844;5.304;2022-10-15T03:01:33;14.70;99.90
29939;DHT22;16799;50.844;5.304;2022-10-15T03:04:00;14.80;99.90
29939;DHT22;16799;50.844;5.304;2022-10-15T03:06:25;14.60;99.90
29939;DHT22;16799;50.844;5.304;2022-10-15T03:08:51;14.60;99.90
29939;DHT22;16799;50.844;5.304;2022-10-15T03:11:16;14.60;99.90
29939;DHT22;16799;50.844;5.304;2022-10-15T03:13:42;14.70;99.90
29939;DHT22;16799;50.844;5.304;2022-10-15T03:16:09;14.70;99.90
29939;DHT22;16799;50.844;5.304;2022-10-15T03:18:35;14.70;99.90
29939;DHT22;16799;50.844;5.304;2022-10-15T03:21:02;14.70;99.90
29939;DHT22;16799;50.844;5.304;2022-10-15T03:23:28;14.70;99.90
29939;DHT22;16799;50.844;5.304;2022-10-15T03:25:54;14.50;99.90
29939;DHT22;16799;50.844;5.304;2022-10-15T03:28:20;14.50;99.90
29939;DHT22;16799;50.844;5.304;2022-10-15T03:30:46;14.40;99.90
29939;DHT22;16799;50.844;5.304;2022-10-15T03:33:12;14.50;99.90
29939;DHT22;16799;50.844;5.304;2022-10-15T03:35:38;14.50;99.90
29939;DHT22;16799;50.844;5.304;2022-10-15T03:38:05;14.50;99.90
29939;DHT22;16799;50.844;5.304;2022-10-15T03:40:31;14.60;99.90
29939;DHT22;16799;50.844;5.304;2022-10-15T03:42:57;14.80;99.90
29939;DHT22;16799;50.844;5.304;2022-10-15T03:45:23;14.80;99.90
29939;DHT22;16799;50.844;5.304;2022-10-15T03:47:49;14.80;99.90
29939;DHT22;16799;50.844;5.304;2022-10-15T03:50:15;14.80;99.90
29939;DHT22;16799;50.844;5.304;2022-10-15T03:52:40;14.90;99.90
29939;DHT22;16799;50.844;5.304;2022-10-15T03:55:07;14.80;99.90
29939;DHT22;16799;50.844;5.304;2022-10-15T03:57:34;14.80;99.90
29939;DHT22;16799;50.844;5.304;2022-10-15T03:59:59;14.60;99.90
29939;DHT22;16799;50.844;5.304;2022-10-15T04:02:25;14.50;99.90
29939;DHT22;16799;50.844;5.304;2022-10-15T04:04:52;14.60;99.90
29939;DHT22;16799;50.844;5.304;2022-10-15T04:07:21;14.60;99.90
29939;DHT22;16799;50.844;5.304;2022-10-15T04:09:47;14.80;99.90
29939;DHT22;16799;50.844;5.304;2022-10-15T04:12:12;14.90;99.90
29939;DHT22;16799;50.844;5.304;2022-10-15T04:14:39;14.80;99.90
29939;DHT22;16799;50.844;5.304;2022-10-15T04:17:05;14.80;99.90
29939;DHT22;16799;50.844;5.304;2022-10-15T04:19:30;14.90;99.90
29939;DHT22;16799;50.844;5.304;2022-10-15T04:21:56;14.90;99.90
29939;DHT22;16799;50.844;5.304;2022-10-15T04:24:22;15.00;99.90
29939;DHT22;16799;50.844;5.304;2022-10-15T04:26:48;15.10;99.90
29939;DHT22;16799;50.844;5.304;2022-10-15T04:29:13;15.10;99.90
29939;DHT22;16799;50.844;5.304;2022-10-15T04:31:40;15.10;99.90
29939;DHT22;16799;50.844;5.304;2022-10-15T04:34:06;15.10;99.90
29939;DHT22;16799;50.844;5.304;2022-10-15T04:36:32;15.00;99.90
29939;DHT22;16799;50.844;5.304;2022-10-15T04:38:58;15.00;99.90
29939;DHT22;16799;50.844;5.304;2022-10-15T04:41:24;14.90;99.90
29939;DHT22;16799;50.844;5.304;2022-10-15T04:43:50;15.00;99.90
29939;DHT22;16799;50.844;5.304;2022-10-15T04:46:15;14.90;99.90
29939;DHT22;16799;50.844;5.304;2022-10-15T04:48:41;14.80;99.90
29939;DHT22;16799;50.844;5.304;2022-10-15T04:51:16;14.80;99.90
29939;DHT22;16799;50.844;5.304;2022-10-15T04:53:42;14.80;99.90
29939;DHT22;16799;50.844;5.304;2022-10-15T04:56:11;14.70;99.90
29939;DHT22;16799;50.844;5.304;2022-10-15T04:58:43;14.70;99.90
29939;DHT22;16799;50.844;5.304;2022-10-15T05:01:11;14.70;99.90
29939;DHT22;16799;50.844;5.304;2022-10-15T05:03:39;14.80;99.90
29939;DHT22;16799;50.844;5.304;2022-10-15T05:06:07;14.80;99.90
29939;DHT22;16799;50.844;5.304;2022-10-15T05:08:35;14.80;99.90
29939;DHT22;16799;50.844;5.304;2022-10-15T05:11:07;14.90;99.90
29939;DHT22;16799;50.844;5.304;2022-10-15T05:13:33;15.00;99.90
29939;DHT22;16799;50.844;5.304;2022-10-15T05:16:14;14.90;99.90
29939;DHT22;16799;50.844;5.304;2022-10-15T05:18:40;14.90;99.90
29939;DHT22;16799;50.844;5.304;2022-10-15T05:21:07;14.90;99.90
29939;DHT22;16799;50.844;5.304;2022-10-15T05:23:33;15.00;99.90
29939;DHT22;16799;50.844;5.304;2022-10-15T05:26:09;15.00;99.90
29939;DHT22;16799;50.844;5.304;2022-10-15T05:28:35;14.90;99.90
29939;DHT22;16799;50.844;5.304;2022-10-15T05:31:12;14.80;99.90
29939;DHT22;16799;50.844;5.304;2022-10-15T05:33:39;14.90;99.90
29939;DHT22;16799;50.844;5.304;2022-10-15T05:36:31;14.80;99.90
29939;DHT22;16799;50.844;5.304;2022-10-15T05:38:59;14.70;99.90
29939;DHT22;16799;50.844;5.304;2022-10-15T05:41:26;14.70;99.90
29939;DHT22;16799;50.844;5.304;2022-10-15T05:43:53;14.90;99.90
29939;DHT22;16799;50.844;5.304;2022-10-15T05:46:20;14.80;99.90
29939;DHT22;16799;50.844;5.304;2022-10-15T05:48:49;14.80;99.90
29939;DHT22;16799;50.844;5.304;2022-10-15T05:51:16;14.80;99.90
29939;DHT22;16799;50.844;5.304;2022-10-15T05:53:42;15.00;99.90
29939;DHT22;16799;50.844;5.304;2022-10-15T05:56:08;15.00;99.90
29939;DHT22;16799;50.844;5.304;2022-10-15T05:58:35;15.00;99.90
29939;DHT22;16799;50.844;5.304;2022-10-15T06:01:02;15.00;99.90
29939;DHT22;16799;50.844;5.304;2022-10-15T06:03:28;15.10;99.90
29939;DHT22;16799;50.844;5.304;2022-10-15T06:05:54;15.20;99.90
29939;DHT22;16799;50.844;5.304;2022-10-15T06:08:20;15.20;99.90
29939;DHT22;16799;50.844;5.304;2022-10-15T06:10:47;15.10;99.90
29939;DHT22;16799;50.844;5.304;2022-10-15T06:13:14;15.10;99.90
29939;DHT22;16799;50.844;5.304;2022-10-15T06:15:43;15.10;99.90
29939;DHT22;16799;50.844;5.304;2022-10-15T06:18:11;15.10;99.90
29939;DHT22;16799;50.844;5.304;2022-10-15T06:20:37;15.30;99.90
29939;DHT22;16799;50.844;5.304;2022-10-15T06:23:04;15.30;99.90
29939;DHT22;16799;50.844;5.304;2022-10-15T06:25:30;15.20;99.90
29939;DHT22;16799;50.844;5.304;2022-10-15T06:28:01;15.10;99.90
29939;DHT22;16799;50.844;5.304;2022-10-15T06:30:28;15.10;99.90
29939;DHT22;16799;50.844;5.304;2022-10-15T06:32:53;15.10;99.90
29939;DHT22;16799;50.844;5.304;2022-10-15T06:35:20;15.10;99.90
29939;DHT22;16799;50.844;5.304;2022-10-15T06:37:47;15.10;99.90
29939;DHT22;16799;50.844;5.304;2022-10-15T06:40:13;15.30;99.90
29939;DHT22;16799;50.844;5.304;2022-10-15T06:42:39;15.50;99.90
29939;DHT22;16799;50.844;5.304;2022-10-15T06:45:06;15.40;99.90
29939;DHT22;16799;50.844;5.304;2022-10-15T06:47:32;15.30;99.90
29939;DHT22;16799;50.844;5.304;2022-10-15T06:49:57;15.20;99.90
29939;DHT22;16799;50.844;5.304;2022-10-15T06:52:23;15.20;99.90
29939;DHT22;16799;50.844;5.304;2022-10-15T06:54:49;15.20;99.90
29939;DHT22;16799;50.844;5.304;2022-10-15T06:57:15;15.30;99.90
29939;DHT22;16799;50.844;5.304;2022-10-15T06:59:41;15.40;99.90
29939;DHT22;16799;50.844;5.304;2022-10-15T07:02:10;15.50;99.90
29939;DHT22;16799;50.844;5.304;2022-10-15T07:04:36;15.50;99.90
29939;DHT22;16799;50.844;5.304;2022-10-15T07:07:02;15.60;99.90
29939;DHT22;16799;50.844;5.304;2022-10-15T07:09:28;15.70;99.90
29939;DHT22;16799;50.844;5.304;2022-10-15T07:11:53;15.60;99.90
29939;DHT22;16799;50.844;5.304;2022-10-15T07:14:19;15.70;99.90
29939;DHT22;16799;50.844;5.304;2022-10-15T07:16:45;15.70;99.90
29939;DHT22;16799;50.844;5.304;2022-10-15T07:19:10;15.70;99.90
29939;DHT22;16799;50.844;5.304;2022-10-15T07:21:36;15.80;99.90
29939;DHT22;16799;50.844;5.304;2022-10-15T07:24:01;15.80;99.90
29939;DHT22;16799;50.844;5.304;2022-10-15T07:26:27;15.90;99.90
29939;DHT22;16799;50.844;5.304;2022-10-15T07:28:55;15.80;99.90
29939;DHT22;16799;50.844;5.304;2022-10-15T07:31:21;15.90;99.90
29939;DHT22;16799;50.844;5.304;2022-10-15T07:33:47;16.00;99.90
29939;DHT22;16799;50.844;5.304;2022-10-15T07:36:13;16.00;99.90
29939;DHT22;16799;50.844;5.304;2022-10-15T07:38:39;16.00;99.90
29939;DHT22;16799;50.844;5.304;2022-10-15T07:41:06;16.00;99.90
29939;DHT22;16799;50.844;5.304;2022-10-15T07:43:33;16.20;99.90
29939;DHT22;16799;50.844;5.304;2022-10-15T07:45:59;16.40;99.90
29939;DHT22;16799;50.844;5.304;2022-10-15T07:48:25;16.50;99.90
29939;DHT22;16799;50.844;5.304;2022-10-15T07:50:59;16.60;99.90
29939;DHT22;16799;50.844;5.304;2022-10-15T07:53:25;16.70;99.90
29939;DHT22;16799;50.844;5.304;2022-10-15T07:55:51;16.90;99.90
29939;DHT22;16799;50.844;5.304;2022-10-15T07:58:17;16.80;99.90
29939;DHT22;16799;50.844;5.304;2022-10-15T08:00:43;16.70;99.90
29939;DHT22;16799;50.844;5.304;2022-10-15T08:03:09;16.60;99.90
29939;DHT22;16799;50.844;5.304;2022-10-15T08:05:34;16.70;99.90
29939;DHT22;16799;50.844;5.304;2022-10-15T08:08:00;16.80;99.90
29939;DHT22;16799;50.844;5.304;2022-10-15T08:10:26;16.80;99.90
29939;DHT22;16799;50.844;5.304;2022-10-15T08:12:52;16.90;99.90
29939;DHT22;16799;50.844;5.304;2022-10-15T08:15:17;16.90;99.90
29939;DHT22;16799;50.844;5.304;2022-10-15T08:17:43;16.90;99.90
29939;DHT22;16799;50.844;5.304;2022-10-15T08:20:09;16.90;99.90
29939;DHT22;16799;50.844;5.304;2022-10-15T08:22:35;16.90;99.90
29939;DHT22;16799;50.844;5.304;2022-10-15T08:25:01;16.90;99.90
29939;DHT22;16799;50.844;5.304;2022-10-15T08:27:27;17.00;99.90
29939;DHT22;16799;50.844;5.304;2022-10-15T08:29:52;17.10;99.90
29939;DHT22;16799;50.844;5.304;2022-10-15T08:32:18;17.30;99.90
29939;DHT22;16799;50.844;5.304;2022-10-15T08:34:44;17.30;99.90
29939;DHT22;16799;50.844;5.304;2022-10-15T08:37:09;17.40;99.90
29939;DHT22;16799;50.844;5.304;2022-10-15T08:39:35;17.20;99.90
29939;DHT22;16799;50.844;5.304;2022-10-15T08:42:03;17.00;99.90
29939;DHT22;16799;50.844;5.304;2022-10-15T08:44:43;16.90;99.90
29939;DHT22;16799;50.844;5.304;2022-10-15T08:47:49;17.10;99.90
29939;DHT22;16799;50.844;5.304;2022-10-15T08:50:37;17.40;99.90
29939;DHT22;16799;50.844;5.304;2022-10-15T08:53:04;17.40;99.90
29939;DHT22;16799;50.844;5.304;2022-10-15T08:55:38;17.40;99.90
29939;DHT22;16799;50.844;5.304;2022-10-15T08:58:12;17.30;99.90
29939;DHT22;16799;50.844;5.304;2022-10-15T09:00:59;17.50;99.90
29939;DHT22;16799;50.844;5.304;2022-10-15T09:06:20;17.80;99.90
29939;DHT22;16799;50.844;5.304;2022-10-15T09:09:06;18.00;99.90
29939;DHT22;16799;50.844;5.304;2022-10-15T09:14:28;17.90;99.90
29939;DHT22;16799;50.844;5.304;2022-10-15T09:17:00;18.10;99.90
29939;DHT22;16799;50.844;5.304;2022-10-15T09:19:29;18.30;99.90
29939;DHT22;16799;50.844;5.304;2022-10-15T09:21:56;18.20;99.90
29939;DHT22;16799;50.844;5.304;2022-10-15T09:24:27;18.30;99.90
29939;DHT22;16799;50.844;5.304;2022-10-15T09:27:04;18.40;99.90
29939;DHT22;16799;50.844;5.304;2022-10-15T09:32:31;18.90;99.90
29939;DHT22;16799;50.844;5.304;2022-10-15T09:37:35;19.10;99.90
29939;DHT22;16799;50.844;5.304;2022-10-15T09:43:07;19.10;99.90
29939;DHT22;16799;50.844;5.304;2022-10-15T09:45:34;19.00;99.90
29939;DHT22;16799;50.844;5.304;2022-10-15T09:48:00;18.80;99.90
29939;DHT22;16799;50.844;5.304;2022-10-15T09:50:38;18.80;99.90
29939;DHT22;16799;50.844;5.304;2022-10-15T09:53:26;18.90;99.90
29939;DHT22;16799;50.844;5.304;2022-10-15T09:58:57;18.80;99.90
29939;DHT22;16799;50.844;5.304;2022-10-15T10:01:31;18.70;99.90
29939;DHT22;16799;50.844;5.304;2022-10-15T10:04:13;18.70;99.90
29939;DHT22;16799;50.844;5.304;2022-10-15T10:06:48;18.80;99.90
29939;DHT22;16799;50.844;5.304;2022-10-15T10:09:48;18.80;99.90
29939;DHT22;16799;50.844;5.304;2022-10-15T10:12:28;19.00;99.90
29939;DHT22;16799;50.844;5.304;2022-10-15T10:17:31;19.20;99.90
29939;DHT22;16799;50.844;5.304;2022-10-15T10:20:14;19.20;99.90
29939;DHT22;16799;50.844;5.304;2022-10-15T10:22:52;19.20;99.90
29939;DHT22;16799;50.844;5.304;2022-10-15T10:25:38;19.30;99.90
29939;DHT22;16799;50.844;5.304;2022-10-15T10:28:15;19.40;99.90
29939;DHT22;16799;50.844;5.304;2022-10-15T10:33:25;20.30;99.90
29939;DHT22;16799;50.844;5.304;2022-10-15T10:35:52;20.20;99.90
29939;DHT22;16799;50.844;5.304;2022-10-15T10:38:20;20.10;99.90
29939;DHT22;16799;50.844;5.304;2022-10-15T10:40:53;19.90;99.90
29939;DHT22;16799;50.844;5.304;2022-10-15T10:43:26;19.80;99.90
29939;DHT22;16799;50.844;5.304;2022-10-15T10:48:20;19.70;99.90
29939;DHT22;16799;50.844;5.304;2022-10-15T10:50:46;19.60;99.90
29939;DHT22;16799;50.844;5.304;2022-10-15T10:53:23;19.50;99.90
29939;DHT22;16799;50.844;5.304;2022-10-15T10:55:51;19.60;99.90
29939;DHT22;16799;50.844;5.304;2022-10-15T10:58:21;19.80;99.90
29939;DHT22;16799;50.844;5.304;2022-10-15T11:00:50;19.70;99.90
29939;DHT22;16799;50.844;5.304;2022-10-15T11:03:39;19.70;99.90
29939;DHT22;16799;50.844;5.304;2022-10-15T11:20:02;20.30;99.90
29939;DHT22;16799;50.844;5.304;2022-10-15T11:25:21;20.10;99.90
29939;DHT22;16799;50.844;5.304;2022-10-15T11:31:28;20.40;99.90
29939;DHT22;16799;50.844;5.304;2022-10-15T11:34:55;20.20;99.90
29939;DHT22;16799;50.844;5.304;2022-10-15T11:42:41;20.20;99.90
29939;DHT22;16799;50.844;5.304;2022-10-15T11:45:43;20.20;99.90
29939;DHT22;16799;50.844;5.304;2022-10-15T11:51:15;20.30;99.90
29939;DHT22;16799;50.844;5.304;2022-10-15T11:58:51;20.80;99.90
29939;DHT22;16799;50.844;5.304;2022-10-15T12:01:20;20.90;99.90
29939;DHT22;16799;50.844;5.304;2022-10-15T12:04:02;20.60;99.90
29939;DHT22;16799;50.844;5.304;2022-10-15T12:06:35;20.30;99.90
29939;DHT22;16799;50.844;5.304;2022-10-15T12:09:02;20.50;99.90
29939;DHT22;16799;50.844;5.304;2022-10-15T12:11:48;20.70;99.90
29939;DHT22;16799;50.844;5.304;2022-10-15T12:14:32;20.90;99.90
29939;DHT22;16799;50.844;5.304;2022-10-15T12:20:07;20.90;99.90
29939;DHT22;16799;50.844;5.304;2022-10-15T12:22:43;20.70;99.90
29939;DHT22;16799;50.844;5.304;2022-10-15T12:30:34;20.20;99.90
29939;DHT22;16799;50.844;5.304;2022-10-15T12:33:18;19.80;99.90
29939;DHT22;16799;50.844;5.304;2022-10-15T12:35:55;19.70;99.90
29939;DHT22;16799;50.844;5.304;2022-10-15T12:40:59;19.20;99.90
29939;DHT22;16799;50.844;5.304;2022-10-15T12:43:25;19.50;99.90
29939;DHT22;16799;50.844;5.304;2022-10-15T12:46:03;19.70;99.90
29939;DHT22;16799;50.844;5.304;2022-10-15T12:48:41;19.80;99.90
29939;DHT22;16799;50.844;5.304;2022-10-15T12:53:45;19.70;99.90
29939;DHT22;16799;50.844;5.304;2022-10-15T12:58:47;19.10;99.90
29939;DHT22;16799;50.844;5.304;2022-10-15T13:13:56;16.50;99.90
29939;DHT22;16799;50.844;5.304;2022-10-15T13:16:23;16.50;99.90
29939;DHT22;16799;50.844;5.304;2022-10-15T13:18:53;16.50;99.90
29939;DHT22;16799;50.844;5.304;2022-10-15T13:21:20;16.60;99.90
29939;DHT22;16799;50.844;5.304;2022-10-15T13:23:48;16.60;99.90
29939;DHT22;16799;50.844;5.304;2022-10-15T13:26:23;16.70;99.90
29939;DHT22;16799;50.844;5.304;2022-10-15T13:28:53;16.80;99.90
29939;DHT22;16799;50.844;5.304;2022-10-15T13:31:23;16.90;99.90
29939;DHT22;16799;50.844;5.304;2022-10-15T13:33:54;17.00;99.90
29939;DHT22;16799;50.844;5.304;2022-10-15T13:36:29;17.10;99.90
29939;DHT22;16799;50.844;5.304;2022-10-15T13:39:03;17.20;99.90
29939;DHT22;16799;50.844;5.304;2022-10-15T13:41:35;17.20;99.90
29939;DHT22;16799;50.844;5.304;2022-10-15T13:44:01;17.40;99.90
29939;DHT22;16799;50.844;5.304;2022-10-15T13:46:30;17.50;99.90
29939;DHT22;16799;50.844;5.304;2022-10-15T13:48:59;17.50;99.90
29939;DHT22;16799;50.844;5.304;2022-10-15T13:51:32;17.60;99.90
29939;DHT22;16799;50.844;5.304;2022-10-15T13:53:59;17.60;99.90
29939;DHT22;16799;50.844;5.304;2022-10-15T13:56:29;17.60;99.90
29939;DHT22;16799;50.844;5.304;2022-10-15T13:58:56;17.50;99.90
29939;DHT22;16799;50.844;5.304;2022-10-15T14:01:23;17.50;99.90
29939;DHT22;16799;50.844;5.304;2022-10-15T14:03:54;17.60;99.90
29939;DHT22;16799;50.844;5.304;2022-10-15T14:06:25;17.70;99.90
29939;DHT22;16799;50.844;5.304;2022-10-15T14:08:54;17.70;99.90
29939;DHT22;16799;50.844;5.304;2022-10-15T14:11:20;17.80;99.90
29939;DHT22;16799;50.844;5.304;2022-10-15T14:13:48;17.70;99.90
29939;DHT22;16799;50.844;5.304;2022-10-15T14:16:28;17.70;99.90
29939;DHT22;16799;50.844;5.304;2022-10-15T14:19:08;17.60;99.90
29939;DHT22;16799;50.844;5.304;2022-10-15T14:21:35;17.50;99.90
29939;DHT22;16799;50.844;5.304;2022-10-15T14:24:10;17.50;99.90
29939;DHT22;16799;50.844;5.304;2022-10-15T14:26:35;17.40;99.90
29939;DHT22;16799;50.844;5.304;2022-10-15T14:29:03;17.30;99.90
29939;DHT22;16799;50.844;5.304;2022-10-15T14:31:39;17.20;99.90
29939;DHT22;16799;50.844;5.304;2022-10-15T14:34:34;17.20;99.90
29939;DHT22;16799;50.844;5.304;2022-10-15T14:37:41;17.20;99.90
29939;DHT22;16799;50.844;5.304;2022-10-15T14:40:10;17.30;99.90
29939;DHT22;16799;50.844;5.304;2022-10-15T14:42:40;17.50;99.90
29939;DHT22;16799;50.844;5.304;2022-10-15T14:45:30;17.60;99.90
29939;DHT22;16799;50.844;5.304;2022-10-15T14:47:58;17.60;99.90
29939;DHT22;16799;50.844;5.304;2022-10-15T14:50:30;17.50;99.90
29939;DHT22;16799;50.844;5.304;2022-10-15T14:52:57;17.50;99.90
29939;DHT22;16799;50.844;5.304;2022-10-15T14:55:30;17.50;99.90
29939;DHT22;16799;50.844;5.304;2022-10-15T14:57:59;17.50;99.90
29939;DHT22;16799;50.844;5.304;2022-10-15T15:00:27;17.50;99.90
29939;DHT22;16799;50.844;5.304;2022-10-15T15:02:55;17.50;99.90
29939;DHT22;16799;50.844;5.304;2022-10-15T15:05:26;17.70;99.90
29939;DHT22;16799;50.844;5.304;2022-10-15T15:07:53;17.70;99.90
29939;DHT22;16799;50.844;5.304;2022-10-15T15:10:23;17.60;99.90
29939;DHT22;16799;50.844;5.304;2022-10-15T15:12:51;17.50;99.90
29939;DHT22;16799;50.844;5.304;2022-10-15T15:15:20;17.70;99.90
29939;DHT22;16799;50.844;5.304;2022-10-15T15:17:47;17.80;99.90
29939;DHT22;16799;50.844;5.304;2022-10-15T15:20:13;18.00;99.90
29939;DHT22;16799;50.844;5.304;2022-10-15T15:22:40;17.90;99.90
29939;DHT22;16799;50.844;5.304;2022-10-15T15:25:22;17.90;99.90
29939;DHT22;16799;50.844;5.304;2022-10-15T15:27:49;17.60;99.90
29939;DHT22;16799;50.844;5.304;2022-10-15T15:30:19;17.40;99.90
29939;DHT22;16799;50.844;5.304;2022-10-15T15:32:46;17.50;99.90
29939;DHT22;16799;50.844;5.304;2022-10-15T15:35:18;17.40;99.90
29939;DHT22;16799;50.844;5.304;2022-10-15T15:37:44;17.40;99.90
29939;DHT22;16799;50.844;5.304;2022-10-15T15:40:10;17.40;99.90
29939;DHT22;16799;50.844;5.304;2022-10-15T15:42:36;17.50;99.90
29939;DHT22;16799;50.844;5.304;2022-10-15T15:45:02;17.60;99.90
29939;DHT22;16799;50.844;5.304;2022-10-15T15:47:28;17.70;99.90
29939;DHT22;16799;50.844;5.304;2022-10-15T15:49:54;17.80;99.90
29939;DHT22;16799;50.844;5.304;2022-10-15T15:52:19;17.90;99.90
29939;DHT22;16799;50.844;5.304;2022-10-15T15:54:45;18.00;99.90
29939;DHT22;16799;50.844;5.304;2022-10-15T15:57:12;18.20;99.90
29939;DHT22;16799;50.844;5.304;2022-10-15T15:59:37;18.10;99.90
29939;DHT22;16799;50.844;5.304;2022-10-15T16:02:03;18.20;99.90
29939;DHT22;16799;50.844;5.304;2022-10-15T16:04:29;18.10;99.90
29939;DHT22;16799;50.844;5.304;2022-10-15T16:06:55;18.00;99.90
29939;DHT22;16799;50.844;5.304;2022-10-15T16:09:21;17.90;99.90
29939;DHT22;16799;50.844;5.304;2022-10-15T16:11:48;18.00;99.90
29939;DHT22;16799;50.844;5.304;2022-10-15T16:14:14;17.80;99.90
29939;DHT22;16799;50.844;5.304;2022-10-15T16:16:40;17.70;99.90
29939;DHT22;16799;50.844;5.304;2022-10-15T16:19:06;17.60;99.90
29939;DHT22;16799;50.844;5.304;2022-10-15T16:21:32;17.40;99.90
29939;DHT22;16799;50.844;5.304;2022-10-15T16:23:58;17.40;99.90
29939;DHT22;16799;50.844;5.304;2022-10-15T16:26:24;17.30;99.90
29939;DHT22;16799;50.844;5.304;2022-10-15T16:28:50;17.20;99.90
29939;DHT22;16799;50.844;5.304;2022-10-15T16:31:21;17.00;99.90
29939;DHT22;16799;50.844;5.304;2022-10-15T16:33:47;16.90;99.90
29939;DHT22;16799;50.844;5.304;2022-10-15T16:36:14;16.80;99.90
29939;DHT22;16799;50.844;5.304;2022-10-15T16:38:41;16.70;99.90
29939;DHT22;16799;50.844;5.304;2022-10-15T16:41:07;16.50;99.90
29939;DHT22;16799;50.844;5.304;2022-10-15T16:43:34;16.50;99.90
29939;DHT22;16799;50.844;5.304;2022-10-15T16:46:00;16.30;99.90
29939;DHT22;16799;50.844;5.304;2022-10-15T16:48:28;16.10;99.90
29939;DHT22;16799;50.844;5.304;2022-10-15T16:51:02;16.00;99.90
29939;DHT22;16799;50.844;5.304;2022-10-15T16:53:30;15.90;99.90
29939;DHT22;16799;50.844;5.304;2022-10-15T16:56:01;15.70;99.90
29939;DHT22;16799;50.844;5.304;2022-10-15T16:58:27;15.80;99.90
29939;DHT22;16799;50.844;5.304;2022-10-15T17:00:57;15.70;99.90
29939;DHT22;16799;50.844;5.304;2022-10-15T17:03:23;15.60;99.90
29939;DHT22;16799;50.844;5.304;2022-10-15T17:05:48;15.50;99.90
29939;DHT22;16799;50.844;5.304;2022-10-15T17:08:14;15.50;99.90
29939;DHT22;16799;50.844;5.304;2022-10-15T17:10:43;15.40;99.90
29939;DHT22;16799;50.844;5.304;2022-10-15T17:13:10;15.30;99.90
29939;DHT22;16799;50.844;5.304;2022-10-15T17:15:35;15.40;99.90
29939;DHT22;16799;50.844;5.304;2022-10-15T17:18:01;15.30;99.90
29939;DHT22;16799;50.844;5.304;2022-10-15T17:20:26;15.40;99.90
29939;DHT22;16799;50.844;5.304;2022-10-15T17:22:52;15.40;99.90
29939;DHT22;16799;50.844;5.304;2022-10-15T17:25:18;15.40;99.90
29939;DHT22;16799;50.844;5.304;2022-10-15T17:27:44;15.30;99.90
29939;DHT22;16799;50.844;5.304;2022-10-15T17:30:09;15.30;99.90
29939;DHT22;16799;50.844;5.304;2022-10-15T17:32:35;15.20;99.90